Time;durP1;ratioP1;P1;durP2;ratioP2;P2;SDS_P1;SDS_P2;PMS_P1;PMS_P2;Temp;Humidity;BMP_temperature;BMP_pressure;BME280_temperature;BME280_humidity;BME280_pressure;Samples;Min_cycle;Max_cycle;Signal;HPM_P1;HPM_P2
2022/03/10 00:01:46;;;;;;;29.88;20.95;;;3.40;99.60;;;;;;4957889;28;89712;-32
2022/03/10 00:04:12;;;;;;;29.40;22.05;;;3.40;99.40;;;;;;4958527;28;90131;-34
2022/03/10 00:06:37;;;;;;;28.02;22.02;;;3.40;99.40;;;;;;4957643;28;90507;-35
2022/03/10 00:09:03;;;;;;;27.23;21.55;;;3.30;99.20;;;;;;4983565;22;90047;-35
2022/03/10 00:11:29;;;;;;;32.78;22.98;;;3.30;99.90;;;;;;4938779;28;89291;-31
2022/03/10 00:13:55;;;;;;;32.05;20.90;;;3.30;99.90;;;;;;4938737;28;89410;-30
2022/03/10 00:16:21;;;;;;;27.20;21.45;;;3.20;99.90;;;;;;4938993;28;90304;-33
2022/03/10 00:18:47;;;;;;;29.60;21.52;;;3.20;99.90;;;;;;4938842;28;89248;-32
2022/03/10 00:21:13;;;;;;;24.40;21.20;;;3.10;99.90;;;;;;4939180;28;89265;-33
2022/03/10 00:23:39;;;;;;;26.27;21.50;;;3.10;99.90;;;;;;4939084;28;90329;-33
2022/03/10 00:26:05;;;;;;;27.20;21.60;;;3.10;99.90;;;;;;4938327;28;90115;-32
2022/03/10 00:28:31;;;;;;;25.75;22.67;;;3.00;99.90;;;;;;4938482;28;91014;-34
2022/03/10 00:30:56;;;;;;;27.80;23.42;;;3.00;99.90;;;;;;4938556;28;92041;-33
2022/03/10 00:33:22;;;;;;;28.65;22.58;;;2.90;99.90;;;;;;4938875;28;88654;-32
2022/03/10 00:35:48;;;;;;;24.23;21.58;;;2.70;99.90;;;;;;4938966;28;90132;-32
2022/03/10 00:38:14;;;;;;;29.20;21.42;;;2.70;99.90;;;;;;4938478;28;89561;-30
2022/03/10 00:40:40;;;;;;;25.17;22.45;;;2.70;99.90;;;;;;4938587;28;89042;-31
2022/03/10 00:43:11;;;;;;;27.88;24.55;;;2.60;99.90;;;;;;4938843;28;88680;-32
2022/03/10 00:45:36;;;;;;;28.20;22.58;;;2.50;99.90;;;;;;4938357;28;90486;-32
2022/03/10 00:48:02;;;;;;;28.52;21.85;;;2.50;99.90;;;;;;4938467;28;90325;-32
2022/03/10 00:50:28;;;;;;;29.65;22.02;;;2.40;99.90;;;;;;4937081;28;89466;-35
2022/03/10 00:52:53;;;;;;;26.80;21.50;;;2.40;99.90;;;;;;4937477;28;89395;-34
2022/03/10 00:55:19;;;;;;;29.85;22.65;;;2.30;99.90;;;;;;4938439;28;89122;-32
2022/03/10 00:57:46;;;;;;;26.20;22.33;;;2.20;99.90;;;;;;4937587;28;89299;-31
2022/03/10 01:00:12;;;;;;;25.08;22.35;;;2.10;99.90;;;;;;4940976;28;90045;-32
2022/03/10 01:02:38;;;;;;;30.17;22.67;;;2.00;99.90;;;;;;4940072;28;89822;-31
2022/03/10 01:05:05;;;;;;;28.67;22.25;;;2.00;99.90;;;;;;4941493;28;89240;-31
2022/03/10 01:07:30;;;;;;;30.70;22.02;;;2.00;99.90;;;;;;4940963;28;90089;-35
2022/03/10 01:09:56;;;;;;;27.00;22.30;;;1.90;99.90;;;;;;4941703;28;89922;-32
2022/03/10 01:12:22;;;;;;;27.92;22.90;;;1.90;99.90;;;;;;4941076;28;89507;-30
2022/03/10 01:14:47;;;;;;;25.65;22.45;;;1.90;99.90;;;;;;4942069;28;90172;-30
2022/03/10 01:17:13;;;;;;;31.77;22.63;;;1.80;99.90;;;;;;4941382;28;90907;-30
2022/03/10 01:19:38;;;;;;;31.63;23.45;;;1.80;99.90;;;;;;4941796;28;90526;-35
2022/03/10 01:22:04;;;;;;;28.33;22.77;;;1.70;99.90;;;;;;4941567;28;89343;-34
2022/03/10 01:24:30;;;;;;;27.70;23.00;;;1.60;99.90;;;;;;4941187;28;90392;-36
2022/03/10 01:26:55;;;;;;;29.90;23.95;;;1.60;99.90;;;;;;4941990;28;89331;-32
2022/03/10 01:29:21;;;;;;;27.30;23.60;;;1.50;99.90;;;;;;4941251;28;90156;-31
2022/03/10 01:31:46;;;;;;;26.10;21.40;;;1.50;99.90;;;;;;4941818;28;88900;-34
2022/03/10 01:34:13;;;;;;;30.48;22.60;;;1.50;99.90;;;;;;4941580;28;90277;-32
2022/03/10 01:36:39;;;;;;;27.40;21.08;;;1.50;99.90;;;;;;4940634;28;89495;-35
2022/03/10 01:39:05;;;;;;;27.70;22.08;;;1.60;99.90;;;;;;4941908;28;89539;-31
2022/03/10 01:41:35;;;;;;;30.38;23.20;;;1.70;99.90;;;;;;4940557;28;90087;-33
2022/03/10 01:44:03;;;;;;;30.00;21.65;;;1.70;99.90;;;;;;4939674;28;90140;-33
2022/03/10 01:46:30;;;;;;;26.98;21.83;;;1.70;99.90;;;;;;4940930;28;88262;-30
2022/03/10 01:48:55;;;;;;;27.98;21.48;;;1.80;99.90;;;;;;4941532;28;89767;-34
2022/03/10 01:51:22;;;;;;;30.50;21.85;;;1.90;99.90;;;;;;4940952;28;88289;-32
2022/03/10 01:53:50;;;;;;;26.55;21.60;;;1.90;99.90;;;;;;4940933;28;90508;-32
2022/03/10 01:56:17;;;;;;;28.07;22.83;;;2.00;99.90;;;;;;4941063;28;89523;-35
2022/03/10 01:58:42;;;;;;;29.65;22.42;;;2.10;99.90;;;;;;4941859;28;89589;-30
2022/03/10 02:01:10;;;;;;;22.60;20.27;;;2.10;99.90;;;;;;4941026;28;90315;-32
2022/03/10 02:03:37;;;;;;;25.40;20.50;;;2.10;99.90;;;;;;4940116;28;90356;-33
2022/03/10 02:06:03;;;;;;;28.17;22.05;;;2.10;99.90;;;;;;4940920;28;90564;-32
2022/03/10 02:11:14;;;;;;;26.45;21.88;;;2.10;99.90;;;;;;4940228;28;89499;-34
2022/03/10 02:13:39;;;;;;;31.55;21.75;;;2.10;99.90;;;;;;4940089;28;91021;-33
2022/03/10 02:18:54;;;;;;;27.45;22.15;;;2.10;99.90;;;;;;4940977;28;89557;-31
2022/03/10 02:21:20;;;;;;;24.95;20.73;;;2.00;99.90;;;;;;4940648;28;89478;-33
2022/03/10 02:23:45;;;;;;;24.15;20.48;;;2.00;99.90;;;;;;4940773;28;90062;-30
2022/03/10 02:26:12;;;;;;;29.45;22.45;;;2.00;99.90;;;;;;4940647;28;89458;-34
2022/03/10 02:28:39;;;;;;;30.90;22.42;;;2.00;99.90;;;;;;4940683;28;89886;-30
2022/03/10 02:31:04;;;;;;;28.30;21.65;;;1.90;99.90;;;;;;4940750;28;89327;-31
2022/03/10 02:33:30;;;;;;;24.83;22.15;;;1.90;99.90;;;;;;4939026;28;89819;-31
2022/03/10 02:35:56;;;;;;;24.23;20.90;;;1.90;99.90;;;;;;4940339;28;89918;-32
2022/03/10 02:38:22;;;;;;;27.98;22.95;;;1.90;99.90;;;;;;4939978;28;89437;-35
2022/03/10 02:40:48;;;;;;;30.70;23.13;;;1.90;99.90;;;;;;4941105;28;87642;-30
2022/03/10 02:43:14;;;;;;;25.48;22.75;;;1.80;99.90;;;;;;4940153;28;90174;-35
2022/03/10 02:45:40;;;;;;;31.25;23.52;;;1.80;99.90;;;;;;4940993;28;89896;-34
2022/03/10 02:48:05;;;;;;;27.17;23.10;;;1.80;99.90;;;;;;4940722;28;89152;-31
2022/03/10 02:50:31;;;;;;;26.98;20.83;;;1.80;99.90;;;;;;4939833;28;88702;-35
2022/03/10 02:52:57;;;;;;;27.08;22.33;;;1.80;99.90;;;;;;4940419;28;90276;-31
2022/03/10 02:55:22;;;;;;;28.63;21.85;;;1.80;99.90;;;;;;4939448;28;89703;-32
2022/03/10 02:57:48;;;;;;;30.58;21.80;;;1.80;99.90;;;;;;4940364;28;90412;-33
2022/03/10 03:00:14;;;;;;;30.80;23.63;;;1.80;99.90;;;;;;4939780;28;87636;-31
2022/03/10 03:02:40;;;;;;;26.58;20.33;;;1.80;99.90;;;;;;4939492;28;90467;-35
2022/03/10 03:05:07;;;;;;;27.25;21.75;;;1.80;99.90;;;;;;4940505;28;88476;-31
2022/03/10 03:07:34;;;;;;;28.20;21.73;;;1.80;99.90;;;;;;4939624;28;89902;-32
2022/03/10 03:09:59;;;;;;;33.72;21.25;;;1.80;99.90;;;;;;4940008;28;87721;-33
2022/03/10 03:12:25;;;;;;;29.63;21.60;;;1.80;99.90;;;;;;4940575;28;90649;-32
2022/03/10 03:14:51;;;;;;;26.17;18.77;;;1.80;99.90;;;;;;4939834;28;89549;-31
2022/03/10 03:17:17;;;;;;;31.00;22.73;;;1.80;99.90;;;;;;4940151;28;90096;-34
2022/03/10 03:19:42;;;;;;;22.98;20.40;;;1.80;99.90;;;;;;4938983;28;89626;-31
2022/03/10 03:22:08;;;;;;;31.55;19.95;;;1.80;99.90;;;;;;4938318;28;90940;-35
2022/03/10 03:24:34;;;;;;;23.35;19.65;;;1.80;99.90;;;;;;4940373;28;90481;-31
2022/03/10 03:27:00;;;;;;;29.45;20.83;;;1.80;99.90;;;;;;4939544;28;89031;-32
2022/03/10 03:29:25;;;;;;;28.05;20.52;;;1.70;99.90;;;;;;4939814;28;87959;-34
2022/03/10 03:31:51;;;;;;;25.40;20.63;;;1.80;99.90;;;;;;4938743;28;91033;-33
2022/03/10 03:34:17;;;;;;;22.67;20.30;;;1.80;99.90;;;;;;4939798;28;89336;-31
2022/03/10 03:36:44;;;;;;;33.33;19.60;;;1.80;99.90;;;;;;4939904;28;89673;-31
2022/03/10 03:39:11;;;;;;;24.67;20.15;;;1.80;99.90;;;;;;4939399;28;89099;-31
2022/03/10 03:41:37;;;;;;;25.92;19.38;;;1.80;99.90;;;;;;4939409;28;90097;-35
2022/03/10 03:44:03;;;;;;;26.60;20.67;;;1.80;99.90;;;;;;4938978;28;90188;-32
2022/03/10 03:46:29;;;;;;;27.70;22.00;;;1.80;99.90;;;;;;4938654;28;90935;-31
2022/03/10 03:48:55;;;;;;;26.75;21.05;;;1.80;99.90;;;;;;4940520;28;88256;-30
2022/03/10 03:51:21;;;;;;;24.02;19.13;;;1.80;99.90;;;;;;4939093;28;88926;-32
2022/03/10 03:53:47;;;;;;;26.10;19.52;;;1.90;99.90;;;;;;4939372;28;89811;-31
2022/03/10 03:56:13;;;;;;;28.80;21.67;;;1.90;99.90;;;;;;4939680;28;89890;-32
2022/03/10 03:58:38;;;;;;;26.38;21.88;;;1.90;99.90;;;;;;4939071;28;89625;-31
2022/03/10 04:01:04;;;;;;;31.65;20.75;;;1.90;99.90;;;;;;4940227;28;90390;-33
2022/03/10 04:03:30;;;;;;;23.27;20.08;;;1.90;99.90;;;;;;4939061;28;89689;-32
2022/03/10 04:05:55;;;;;;;33.67;20.35;;;2.00;99.90;;;;;;4939186;28;89743;-35
2022/03/10 04:08:21;;;;;;;26.65;20.38;;;1.90;99.90;;;;;;4938649;28;89363;-31
2022/03/10 04:10:47;;;;;;;24.83;19.10;;;1.90;99.90;;;;;;4938744;28;90207;-32
2022/03/10 04:13:13;;;;;;;27.02;20.45;;;1.90;99.90;;;;;;4939543;28;90314;-33
2022/03/10 04:15:38;;;;;;;23.58;20.63;;;1.90;99.90;;;;;;4938389;28;89568;-34
2022/03/10 04:18:04;;;;;;;24.90;18.13;;;1.80;99.90;;;;;;4939041;28;88241;-33
2022/03/10 04:20:30;;;;;;;27.35;19.83;;;1.80;99.90;;;;;;4939050;28;91591;-32
2022/03/10 04:22:56;;;;;;;22.98;19.17;;;1.80;99.90;;;;;;4938521;28;89586;-36
2022/03/10 04:25:22;;;;;;;23.20;18.02;;;1.70;99.90;;;;;;4939361;28;88778;-33
2022/03/10 04:27:49;;;;;;;25.70;19.35;;;1.70;99.90;;;;;;4938912;28;88306;-34
2022/03/10 04:30:15;;;;;;;23.67;20.40;;;1.60;99.90;;;;;;4938950;28;90349;-31
2022/03/10 04:32:45;;;;;;;20.75;18.42;;;1.60;99.90;;;;;;4938364;28;90481;-31
2022/03/10 04:35:13;;;;;;;26.48;19.70;;;1.50;99.90;;;;;;4942473;28;91785;-31
2022/03/10 04:37:39;;;;;;;28.58;20.65;;;1.60;99.90;;;;;;4942969;28;88603;-32
2022/03/10 04:40:06;;;;;;;23.55;19.02;;;1.50;99.90;;;;;;4941921;28;90232;-32
2022/03/10 04:42:33;;;;;;;33.70;21.08;;;1.50;99.90;;;;;;4941733;28;89297;-34
2022/03/10 04:44:59;;;;;;;28.08;19.65;;;1.50;99.90;;;;;;4942713;28;89552;-30
2022/03/10 04:47:25;;;;;;;22.75;18.83;;;1.50;99.90;;;;;;4941561;28;88308;-29
2022/03/10 04:49:50;;;;;;;24.08;19.13;;;1.50;99.90;;;;;;4942563;28;90243;-33
2022/03/10 04:52:16;;;;;;;22.80;18.77;;;1.40;99.90;;;;;;4941276;28;90618;-34
2022/03/10 04:54:41;;;;;;;21.05;18.83;;;1.40;99.90;;;;;;4942559;28;89914;-31
2022/03/10 04:57:07;;;;;;;30.00;19.25;;;1.40;99.90;;;;;;4941559;28;89212;-30
2022/03/10 04:59:33;;;;;;;25.63;19.80;;;1.40;99.90;;;;;;4942156;28;90083;-31
2022/03/10 05:01:58;;;;;;;26.40;18.40;;;1.40;99.90;;;;;;4942441;28;89903;-31
2022/03/10 05:04:24;;;;;;;27.35;19.45;;;1.40;99.90;;;;;;4941499;28;89269;-33
2022/03/10 05:06:49;;;;;;;28.17;20.50;;;1.40;99.90;;;;;;4942486;28;89509;-32
2022/03/10 05:09:15;;;;;;;27.65;18.95;;;1.40;99.90;;;;;;4940527;28;90522;-34
2022/03/10 05:11:41;;;;;;;24.48;20.50;;;1.40;99.90;;;;;;4942150;28;89039;-36
2022/03/10 05:14:07;;;;;;;24.40;20.02;;;1.30;99.90;;;;;;4941140;28;89704;-33
2022/03/10 05:16:33;;;;;;;26.33;19.10;;;1.40;99.90;;;;;;4941417;28;88996;-32
2022/03/10 05:18:59;;;;;;;21.95;18.63;;;1.40;99.90;;;;;;4941905;28;90389;-31
2022/03/10 05:21:24;;;;;;;24.48;20.08;;;1.40;99.90;;;;;;4940277;28;90313;-32
2022/03/10 05:23:52;;;;;;;22.45;19.98;;;1.40;99.90;;;;;;4942156;28;89998;-32
2022/03/10 05:26:18;;;;;;;27.33;19.45;;;1.30;99.90;;;;;;4942273;28;88302;-31
2022/03/10 05:28:44;;;;;;;23.23;19.55;;;1.30;99.90;;;;;;4940607;28;89062;-32
2022/03/10 05:31:10;;;;;;;22.33;18.20;;;1.30;99.90;;;;;;4941992;28;89572;-32
2022/03/10 05:33:35;;;;;;;29.00;20.40;;;1.30;99.90;;;;;;4941533;28;89537;-31
2022/03/10 05:36:01;;;;;;;27.08;20.95;;;1.30;99.90;;;;;;4941817;28;89354;-30
2022/03/10 05:38:26;;;;;;;25.77;20.13;;;1.30;99.90;;;;;;4941404;28;89489;-31
2022/03/10 05:40:53;;;;;;;23.58;18.10;;;1.30;99.90;;;;;;4941026;28;89693;-31
2022/03/10 05:43:18;;;;;;;23.23;19.10;;;1.30;99.90;;;;;;4941173;28;89595;-34
2022/03/10 05:45:44;;;;;;;21.17;18.00;;;1.30;99.90;;;;;;4939149;28;90159;-34
2022/03/10 05:48:09;;;;;;;23.25;18.90;;;1.30;99.90;;;;;;4941387;28;89242;-34
2022/03/10 05:50:35;;;;;;;24.55;19.75;;;1.40;99.90;;;;;;4941153;28;89159;-31
2022/03/10 05:53:03;;;;;;;23.73;18.65;;;1.30;99.90;;;;;;4940765;28;89687;-33
2022/03/10 05:55:29;;;;;;;25.55;19.90;;;1.30;99.90;;;;;;4941142;28;90466;-36
2022/03/10 05:57:55;;;;;;;28.90;19.15;;;1.30;99.90;;;;;;4941362;28;90119;-32
2022/03/10 06:00:21;;;;;;;24.67;18.88;;;1.20;99.90;;;;;;4941120;28;89297;-33
2022/03/10 06:02:46;;;;;;;24.77;20.35;;;1.20;99.90;;;;;;4941422;28;89586;-31
2022/03/10 06:05:12;;;;;;;24.88;19.73;;;1.20;99.90;;;;;;4941094;28;89586;-32
2022/03/10 06:07:38;;;;;;;31.40;20.20;;;1.20;99.90;;;;;;4940679;28;90073;-34
2022/03/10 06:10:04;;;;;;;30.23;20.13;;;1.20;99.90;;;;;;4940337;28;90806;-31
2022/03/10 06:12:30;;;;;;;25.02;20.80;;;1.20;99.90;;;;;;4940687;28;90695;-31
2022/03/10 06:14:57;;;;;;;26.48;19.70;;;1.30;99.90;;;;;;4941709;28;89868;-34
2022/03/10 06:17:23;;;;;;;31.95;21.73;;;1.30;99.90;;;;;;4940629;28;90370;-31
2022/03/10 06:19:49;;;;;;;27.60;20.73;;;1.30;99.90;;;;;;4940865;28;89748;-36
2022/03/10 06:22:18;;;;;;;31.63;23.27;;;1.30;99.90;;;;;;4941174;28;89743;-30
2022/03/10 06:24:45;;;;;;;28.15;20.30;;;1.30;99.90;;;;;;4941311;28;89545;-31
2022/03/10 06:27:14;;;;;;;25.88;20.30;;;1.30;99.90;;;;;;4940336;28;89565;-30
2022/03/10 06:29:41;;;;;;;23.27;19.30;;;1.30;99.90;;;;;;4940064;28;89667;-35
2022/03/10 06:32:07;;;;;;;25.13;22.48;;;1.30;99.90;;;;;;4940492;28;89132;-31
2022/03/10 06:34:33;;;;;;;28.40;20.40;;;1.30;99.90;;;;;;4940973;28;88968;-30
2022/03/10 06:36:59;;;;;;;23.50;20.95;;;1.30;99.90;;;;;;4940415;28;90409;-33
2022/03/10 06:39:25;;;;;;;30.75;20.85;;;1.40;99.90;;;;;;4940019;28;90327;-33
2022/03/10 06:41:51;;;;;;;32.25;20.73;;;1.40;99.90;;;;;;4940223;28;90053;-30
2022/03/10 06:44:16;;;;;;;22.38;19.00;;;1.50;99.90;;;;;;4940544;28;88937;-30
2022/03/10 06:46:42;;;;;;;31.58;20.85;;;1.50;99.90;;;;;;4941344;28;90164;-32
2022/03/10 06:49:07;;;;;;;32.38;22.13;;;1.60;99.90;;;;;;4940430;28;89518;-33
2022/03/10 06:51:33;;;;;;;26.38;19.20;;;1.60;99.90;;;;;;4940533;28;89992;-30
2022/03/10 06:53:59;;;;;;;28.52;20.00;;;1.60;99.90;;;;;;4940361;28;88873;-33
2022/03/10 06:56:25;;;;;;;29.58;22.05;;;1.70;99.90;;;;;;4939867;28;89879;-31
2022/03/10 06:58:51;;;;;;;24.63;21.52;;;1.70;99.90;;;;;;4939649;28;91344;-32
2022/03/10 07:01:17;;;;;;;26.45;21.30;;;1.70;99.90;;;;;;4940046;28;90529;-32
2022/03/10 07:03:42;;;;;;;25.55;20.38;;;1.80;99.90;;;;;;4940642;28;87725;-31
2022/03/10 07:06:08;;;;;;;24.83;20.92;;;1.90;99.90;;;;;;4939941;28;90149;-34
2022/03/10 07:08:34;;;;;;;25.08;20.52;;;1.90;99.90;;;;;;4939754;28;89395;-35
2022/03/10 07:11:00;;;;;;;26.13;21.25;;;2.00;99.90;;;;;;4940307;28;89482;-34
2022/03/10 07:13:25;;;;;;;28.13;21.25;;;2.00;99.90;;;;;;4939364;28;88048;-32
2022/03/10 07:15:51;;;;;;;29.33;21.35;;;2.10;99.90;;;;;;4940881;28;90401;-30
2022/03/10 07:18:16;;;;;;;28.98;22.27;;;2.20;99.90;;;;;;4943960;28;89625;-31
2022/03/10 07:20:42;;;;;;;26.65;21.77;;;2.40;99.90;;;;;;4940250;28;90018;-34
2022/03/10 07:23:08;;;;;;;22.17;19.73;;;2.50;99.90;;;;;;4939453;28;89574;-32
2022/03/10 07:25:33;;;;;;;29.63;20.30;;;2.70;99.90;;;;;;4939749;28;90631;-34
2022/03/10 07:27:59;;;;;;;28.20;21.10;;;3.00;99.90;;;;;;4939809;28;89280;-32
2022/03/10 07:30:24;;;;;;;28.33;21.83;;;3.30;99.90;;;;;;4939324;28;89682;-34
2022/03/10 07:32:50;;;;;;;26.10;20.63;;;3.50;99.90;;;;;;4939905;28;89684;-31
2022/03/10 07:35:15;;;;;;;28.55;21.00;;;3.60;99.90;;;;;;4939247;28;89617;-33
2022/03/10 07:37:41;;;;;;;24.75;20.70;;;3.70;99.90;;;;;;4939804;28;89709;-31
2022/03/10 07:40:08;;;;;;;29.75;23.80;;;3.80;99.90;;;;;;4940286;28;90122;-31
2022/03/10 07:42:33;;;;;;;28.88;22.13;;;3.80;99.90;;;;;;4939942;28;90766;-33
2022/03/10 07:44:59;;;;;;;35.10;23.23;;;3.80;99.90;;;;;;4940328;28;90490;-31
2022/03/10 07:47:24;;;;;;;28.65;22.30;;;3.90;99.90;;;;;;4938173;28;90675;-32
2022/03/10 07:49:50;;;;;;;27.83;20.83;;;4.00;99.90;;;;;;4939457;28;90500;-31
2022/03/10 07:52:15;;;;;;;27.38;22.25;;;4.20;99.90;;;;;;4938796;28;88674;-34
2022/03/10 07:54:41;;;;;;;27.20;21.10;;;4.30;99.90;;;;;;4939550;28;90664;-31
2022/03/10 07:57:07;;;;;;;27.10;21.90;;;4.40;99.90;;;;;;4939599;28;89770;-31
2022/03/10 07:59:32;;;;;;;30.48;22.42;;;4.50;99.90;;;;;;4896872;28;89779;-33
2022/03/10 08:01:58;;;;;;;26.60;20.80;;;4.60;99.90;;;;;;4891371;28;88376;-31
2022/03/10 08:04:23;;;;;;;26.70;20.65;;;4.80;99.90;;;;;;4885246;28;90481;-31
2022/03/10 08:06:49;;;;;;;27.50;21.08;;;4.90;99.90;;;;;;4959393;28;89306;-32
2022/03/10 08:09:14;;;;;;;26.17;20.98;;;5.00;99.90;;;;;;4960872;28;89361;-33
2022/03/10 08:11:40;;;;;;;28.77;22.70;;;5.10;99.90;;;;;;4962249;28;88262;-34
2022/03/10 08:14:06;;;;;;;29.25;23.73;;;5.30;99.80;;;;;;4961935;28;91935;-32
2022/03/10 08:16:33;;;;;;;30.90;23.38;;;5.40;97.60;;;;;;4962301;28;89055;-37
2022/03/10 08:18:59;;;;;;;25.20;22.25;;;5.50;98.60;;;;;;4962691;28;88746;-32
2022/03/10 08:21:26;;;;;;;29.75;22.92;;;5.60;98.10;;;;;;4962018;28;88830;-34
2022/03/10 08:23:52;;;;;;;26.95;22.38;;;5.80;98.90;;;;;;4961824;28;90123;-35
2022/03/10 08:26:18;;;;;;;25.05;20.15;;;5.90;96.90;;;;;;4961437;28;89640;-35
2022/03/10 08:28:45;;;;;;;26.23;19.80;;;6.00;95.30;;;;;;4962038;28;89416;-32
2022/03/10 08:31:10;;;;;;;39.80;23.75;;;6.10;95.90;;;;;;4961787;28;88091;-31
2022/03/10 08:33:37;;;;;;;33.15;22.88;;;6.20;95.40;;;;;;4961490;28;90101;-34
2022/03/10 08:36:05;;;;;;;22.10;19.30;;;6.30;95.60;;;;;;4961052;28;91630;-34
2022/03/10 08:38:31;;;;;;;30.45;22.70;;;6.50;93.10;;;;;;4939758;28;89423;-32
2022/03/10 08:40:57;;;;;;;26.45;22.60;;;6.60;94.30;;;;;;4976805;28;89579;-31
2022/03/10 08:43:28;;;;;;;30.30;22.52;;;6.80;93.40;;;;;;4979052;28;90209;-31
2022/03/10 08:45:54;;;;;;;29.33;21.58;;;6.90;92.50;;;;;;4979774;28;89639;-31
2022/03/10 08:48:20;;;;;;;27.98;21.80;;;7.00;90.70;;;;;;4978896;28;89940;-34
2022/03/10 08:50:46;;;;;;;27.25;22.13;;;7.10;85.80;;;;;;4980236;28;89213;-33
2022/03/10 08:53:11;;;;;;;27.38;21.98;;;7.20;85.60;;;;;;4979351;28;89895;-33
2022/03/10 08:55:37;;;;;;;24.30;21.52;;;7.30;84.80;;;;;;4979876;28;89734;-33
2022/03/10 08:58:03;;;;;;;31.98;22.25;;;7.30;85.30;;;;;;4978922;28;91675;-31
2022/03/10 09:00:28;;;;;;;26.55;21.70;;;7.50;83.30;;;;;;4979033;28;89553;-33
2022/03/10 09:02:54;;;;;;;29.85;22.67;;;7.50;85.10;;;;;;4979819;28;90228;-32
2022/03/10 09:05:20;;;;;;;28.45;22.90;;;7.60;83.70;;;;;;4979150;28;89688;-30
2022/03/10 09:07:45;;;;;;;25.85;19.95;;;7.80;84.20;;;;;;4979700;28;89768;-30
2022/03/10 09:10:11;;;;;;;27.33;22.50;;;8.00;79.40;;;;;;4972741;28;88113;-32
2022/03/10 09:12:38;;;;;;;25.23;22.45;;;8.10;78.20;;;;;;4975710;28;89289;-30
2022/03/10 09:15:05;;;;;;;24.88;22.30;;;8.20;79.50;;;;;;4979536;28;89802;-30
2022/03/10 09:17:31;;;;;;;27.57;22.27;;;8.40;77.80;;;;;;4979733;28;89712;-33
2022/03/10 09:19:57;;;;;;;29.67;21.63;;;8.60;78.20;;;;;;4979120;28;87994;-33
2022/03/10 09:22:25;;;;;;;25.00;19.92;;;8.80;76.20;;;;;;4979294;28;90307;-32
2022/03/10 09:24:52;;;;;;;23.40;19.95;;;9.00;77.40;;;;;;4978325;28;89707;-33
2022/03/10 09:27:17;;;;;;;26.33;20.83;;;9.30;71.80;;;;;;4979121;28;90569;-33
2022/03/10 09:29:43;;;;;;;28.88;20.35;;;9.40;69.40;;;;;;4979818;28;88999;-31
2022/03/10 09:32:09;;;;;;;28.17;20.52;;;9.50;71.10;;;;;;4978554;28;90824;-34
2022/03/10 09:34:35;;;;;;;22.58;20.17;;;9.60;70.00;;;;;;4979605;28;88767;-32
2022/03/10 09:37:01;;;;;;;29.75;20.08;;;9.80;68.60;;;;;;4979079;28;89559;-33
2022/03/10 09:39:26;;;;;;;25.60;19.42;;;9.90;66.40;;;;;;4978175;28;88898;-33
2022/03/10 09:41:56;;;;;;;24.13;20.10;;;9.90;65.90;;;;;;4979544;28;90338;-33
2022/03/10 09:44:21;;;;;;;22.92;20.35;;;10.00;66.50;;;;;;4978550;28;89885;-31
2022/03/10 09:46:52;;;;;;;23.55;20.75;;;10.20;66.20;;;;;;4978359;28;89648;-33
2022/03/10 09:49:21;;;;;;;23.65;19.38;;;10.40;65.50;;;;;;4978248;28;88583;-33
2022/03/10 09:51:49;;;;;;;26.25;20.13;;;10.50;64.70;;;;;;4978422;28;89504;-30
2022/03/10 09:54:15;;;;;;;24.85;17.63;;;10.50;64.50;;;;;;4970547;28;89984;-31
2022/03/10 09:56:42;;;;;;;29.42;18.27;;;10.60;64.20;;;;;;4960417;28;89967;-32
2022/03/10 09:59:09;;;;;;;27.08;20.23;;;10.80;64.70;;;;;;4958942;28;88085;-33
2022/03/10 10:01:35;;;;;;;27.77;20.33;;;10.90;64.40;;;;;;4958720;28;90255;-31
2022/03/10 10:04:01;;;;;;;30.10;20.73;;;11.10;64.00;;;;;;4957607;28;89473;-33
2022/03/10 10:06:27;;;;;;;22.30;18.08;;;11.30;63.50;;;;;;4967214;28;89840;-30
2022/03/10 10:08:57;;;;;;;21.00;17.58;;;11.40;63.30;;;;;;4961735;28;89488;-38
2022/03/10 10:11:33;;;;;;;24.02;19.27;;;11.50;62.10;;;;;;4972994;28;90193;-35
2022/03/10 10:13:59;;;;;;;27.02;20.80;;;11.60;62.30;;;;;;4958249;28;89442;-31
2022/03/10 10:16:25;;;;;;;22.08;16.90;;;11.80;61.70;;;;;;4957885;28;91064;-33
2022/03/10 10:18:58;;;;;;;24.73;19.65;;;11.90;61.60;;;;;;4958454;28;90225;-31
2022/03/10 10:21:25;;;;;;;21.50;18.50;;;12.00;61.00;;;;;;4977691;28;90275;-35
2022/03/10 10:23:54;;;;;;;19.30;17.08;;;12.10;60.90;;;;;;4977763;28;89452;-32
2022/03/10 10:26:26;;;;;;;37.03;20.17;;;12.20;60.80;;;;;;4978206;28;89298;-32
2022/03/10 10:28:52;;;;;;;20.02;16.75;;;12.30;59.70;;;;;;4977678;28;87881;-32
2022/03/10 10:31:20;;;;;;;20.90;17.95;;;12.40;59.20;;;;;;4977250;28;90751;-31
2022/03/10 10:34:09;;;;;;;22.98;17.70;;;12.50;59.10;;;;;;4978128;28;89349;-32
2022/03/10 10:36:37;;;;;;;21.75;17.10;;;12.50;58.40;;;;;;4977966;28;89860;-31
2022/03/10 10:39:15;;;;;;;19.63;15.90;;;12.60;58.40;;;;;;4977431;28;89537;-34
2022/03/10 10:41:43;;;;;;;26.08;17.65;;;12.80;58.20;;;;;;4978014;28;90313;-31
2022/03/10 10:44:12;;;;;;;25.93;17.50;;;12.90;56.30;;;;;;4977044;28;89330;-31
2022/03/10 10:46:46;;;;;;;21.92;17.45;;;12.90;56.50;;;;;;4977015;28;88228;-34
2022/03/10 10:49:15;;;;;;;24.35;17.33;;;13.00;56.70;;;;;;4977788;28;89501;-32
2022/03/10 10:51:49;;;;;;;22.83;17.98;;;13.00;55.90;;;;;;4978021;28;90336;-32
2022/03/10 10:54:21;;;;;;;18.48;16.15;;;13.00;55.10;;;;;;4977199;28;89755;-37
2022/03/10 10:56:47;;;;;;;20.10;16.60;;;13.20;54.80;;;;;;4977150;28;89040;-33
2022/03/10 10:59:45;;;;;;;22.02;17.50;;;13.20;55.70;;;;;;4976980;28;88653;-33
2022/03/10 11:02:12;;;;;;;;;;;13.30;53.40;;;;;;4954201;28;90325;-31
2022/03/10 11:04:47;;;;;;;21.65;18.75;;;13.40;52.90;;;;;;4978217;28;90934;-35
2022/03/10 11:07:13;;;;;;;23.67;17.13;;;13.50;53.00;;;;;;4976856;28;89302;-31
2022/03/10 11:09:41;;;;;;;22.15;16.77;;;13.50;52.70;;;;;;4977387;28;89869;-32
2022/03/10 11:12:09;;;;;;;21.67;17.42;;;13.60;54.50;;;;;;4977610;28;90488;-32
2022/03/10 11:14:35;;;;;;;22.88;17.35;;;13.70;53.10;;;;;;4976586;28;90225;-33
2022/03/10 11:17:02;;;;;;;24.05;17.42;;;13.80;52.50;;;;;;4977040;28;90491;-32
2022/03/10 11:19:35;;;;;;;22.63;17.67;;;13.90;51.20;;;;;;4977634;28;88184;-31
2022/03/10 11:22:28;;;;;;;22.55;17.08;;;14.10;50.80;;;;;;4968386;28;91181;-33
2022/03/10 11:25:21;;;;;;;20.77;17.52;;;14.00;50.60;;;;;;4976305;28;89710;-34
2022/03/10 11:27:47;;;;;;;23.30;16.92;;;14.10;51.00;;;;;;4976926;28;89785;-33
2022/03/10 11:30:12;;;;;;;24.00;18.35;;;14.10;51.20;;;;;;4977605;28;90099;-35
2022/03/10 11:32:38;;;;;;;22.90;18.23;;;14.30;49.70;;;;;;4976638;28;91947;-35
2022/03/10 11:35:04;;;;;;;22.52;18.02;;;14.30;49.40;;;;;;4976508;28;90287;-33
2022/03/10 11:37:42;;;;;;;25.45;18.67;;;14.40;49.10;;;;;;4977365;28;90474;-31
2022/03/10 11:40:19;;;;;;;28.80;17.35;;;14.40;49.50;;;;;;4976412;28;89373;-34
2022/03/10 11:42:46;;;;;;;21.58;16.55;;;14.40;49.30;;;;;;4976060;28;89840;-34
2022/03/10 11:45:19;;;;;;;24.75;18.77;;;14.50;49.40;;;;;;4976425;28;89825;-33
2022/03/10 11:47:46;;;;;;;21.63;17.52;;;14.50;49.60;;;;;;4976515;28;89762;-34
2022/03/10 11:50:25;;;;;;;20.90;18.27;;;14.70;48.70;;;;;;4976088;28;88224;-34
2022/03/10 11:52:56;;;;;;;26.55;19.70;;;14.70;48.70;;;;;;4976467;28;91141;-34
2022/03/10 11:55:24;;;;;;;26.30;18.83;;;14.70;49.20;;;;;;4975572;28;90388;-34
2022/03/10 11:57:55;;;;;;;25.33;18.92;;;14.80;49.20;;;;;;4976374;28;89383;-32
2022/03/10 12:00:44;;;;;;;24.35;19.58;;;14.80;49.90;;;;;;4975575;28;89091;-33
2022/03/10 12:03:26;;;;;;;25.13;19.10;;;14.90;49.50;;;;;;4976515;28;90311;-32
2022/03/10 12:06:07;;;;;;;37.85;19.70;;;15.00;49.00;;;;;;4976493;28;88526;-33
2022/03/10 12:08:37;;;;;;;29.38;19.38;;;15.00;49.00;;;;;;4991600;28;90000;-35
2022/03/10 12:11:20;;;;;;;23.15;17.02;;;15.10;48.40;;;;;;4935777;28;89990;-32
2022/03/10 12:13:46;;;;;;;97.13;22.83;;;15.00;48.20;;;;;;4937323;28;90282;-32
2022/03/10 12:16:37;;;;;;;34.03;21.33;;;15.00;48.30;;;;;;4937360;28;89635;-36
2022/03/10 12:19:03;;;;;;;25.58;18.48;;;15.10;47.60;;;;;;4927336;28;89087;-31
2022/03/10 12:21:30;;;;;;;19.88;15.30;;;15.10;48.20;;;;;;4937185;28;89984;-36
2022/03/10 12:24:01;;;;;;;25.05;17.58;;;15.10;47.70;;;;;;4937094;28;89122;-33
2022/03/10 12:26:33;;;;;;;23.95;16.38;;;15.10;48.20;;;;;;4937444;28;89606;-32
2022/03/10 12:29:05;;;;;;;26.20;17.35;;;15.20;48.10;;;;;;4937020;28;88991;-35
2022/03/10 12:31:33;;;;;;;23.13;16.75;;;15.20;48.00;;;;;;4937430;28;88233;-33
2022/03/10 12:34:01;;;;;;;31.90;17.45;;;15.30;47.90;;;;;;4935953;28;90290;-36
2022/03/10 12:36:35;;;;;;;23.80;17.98;;;15.20;47.30;;;;;;4936844;28;89889;-33
2022/03/10 12:39:09;;;;;;;21.23;17.65;;;15.30;47.50;;;;;;4925959;28;89439;-35
2022/03/10 12:42:04;;;;;;;26.65;18.77;;;15.20;46.60;;;;;;4932413;28;88695;-32